Terminal Aerodrome Forecast
Issued by NWS Knoxville/Tri Cities, TN

Home | Current Version | Previous Version | Text Only | Print | Product List | Glossary On
Versions: 1 2 3 4 5 6 7 8 9 10 11 12 13 14 15 16 17 18 19 20 21 22 23 24 25 26 27 28 29 30 31 32 33 34 35 36 37
000
FTUS44 KMRX 031727
TAFTYS
TAF
KTYS 031727Z 0318/0418 23012G22KT P6SM VCTS SCT015 BKN025CB
     FM032000 23013G23KT P6SM VCTS SCT025CB BKN035
     FM040100 22010KT P6SM VCTS SCT025CB BKN090
     FM040600 22010KT 6SM -SHRA BR VCTS SCT010 BKN020CB
     FM041600 23011KT P6SM VCTS SCT020CB BKN035=

USA.gov is the U.S. government's official web portal to all federal, state and local government web resources and services.